Terminal Aerodrome Forecast
Issued by NWS

Home | Current Version | Previous Version | Graphics & Text | Print | Product List | Glossary On
Versions: 1 2 3 4 5 6 7 8 9 10 11 12 13 14 15 16 17 18 19 20 21
000
FTUS43 KABR 211606 AAA
TAFPIR
TAF AMD
KPIR 211606Z 2116/2212 07008KT P6SM VCSH SCT015 OVC050
     FM211700 08009KT P6SM OVC020
     FM211800 08009KT P6SM OVC025
     FM211900 09010KT P6SM OVC040
     FM220700 11014G21KT P6SM OVC060
     FM221000 11018G25KT P6SM OVC030=

USA.gov is the U.S. government's official web portal to all federal, state and local government web resources and services.